Time;durP1;ratioP1;P1;durP2;ratioP2;P2;SDS_P1;SDS_P2;PMS_P1;PMS_P2;Temp;Humidity;BMP_temperature;BMP_pressure;BME280_temperature;BME280_humidity;BME280_pressure;Samples;Min_cycle;Max_cycle;Signal;HPM_P1;HPM_P2
2023/08/16 00:00:58;;;;;;;3.22;2.92;;;;;;;19.21;100.00;96293.44;5095066;28;20023;-67
2023/08/16 00:03:23;;;;;;;6.35;3.00;;;;;;;19.20;100.00;96291.78;5093616;28;20081;-67
2023/08/16 00:05:48;;;;;;;4.95;3.20;;;;;;;19.19;100.00;96296.28;5095206;28;20046;-67
2023/08/16 00:08:14;;;;;;;4.35;3.13;;;;;;;19.21;100.00;96293.44;5093381;28;20047;-67
2023/08/16 00:10:39;;;;;;;3.40;3.10;;;;;;;19.13;100.00;96297.00;5095553;28;20061;-67
2023/08/16 00:13:05;;;;;;;3.17;2.95;;;;;;;19.03;100.00;96292.78;5102113;28;20024;-67
2023/08/16 00:15:30;;;;;;;3.20;2.90;;;;;;;19.01;100.00;96293.94;5103203;28;20400;-67
2023/08/16 00:17:56;;;;;;;4.25;2.92;;;;;;;18.98;100.00;96302.28;5099337;28;20024;-67
2023/08/16 00:20:26;;;;;;;4.53;3.95;;;;;;;18.99;100.00;96302.13;5105394;28;20024;-67
2023/08/16 00:22:52;;;;;;;3.70;3.28;;;;;;;18.94;100.00;96301.81;5097519;28;20030;-67
2023/08/16 00:25:17;;;;;;;3.65;3.35;;;;;;;18.94;100.00;96303.66;5104789;28;20055;-67
2023/08/16 00:27:43;;;;;;;3.97;3.67;;;;;;;18.88;100.00;96305.19;5097024;28;20031;-67
2023/08/16 00:30:09;;;;;;;2.78;2.58;;;;;;;18.86;100.00;96296.56;5094279;28;20104;-67
2023/08/16 00:32:35;;;;;;;3.40;2.83;;;;;;;18.85;100.00;96295.72;5093887;28;20028;-67
2023/08/16 00:35:00;;;;;;;2.83;2.63;;;;;;;18.79;100.00;96288.44;5102789;28;20023;-67
2023/08/16 00:37:26;;;;;;;3.88;2.53;;;;;;;18.76;100.00;96294.94;5104269;28;20023;-67
2023/08/16 00:39:51;;;;;;;4.30;2.97;;;;;;;18.75;100.00;96295.13;5095316;28;20105;-67
2023/08/16 00:42:17;;;;;;;3.42;3.05;;;;;;;18.73;100.00;96295.31;5099152;28;20024;-67
2023/08/16 00:44:42;;;;;;;3.10;2.88;;;;;;;18.68;100.00;96302.19;5101772;28;20431;-66
2023/08/16 00:47:07;;;;;;;3.83;3.17;;;;;;;18.62;100.00;96301.06;5110899;28;20066;-67
2023/08/16 00:49:33;;;;;;;4.03;3.70;;;;;;;18.60;100.00;96303.09;5093955;28;20108;-67
2023/08/16 00:52:01;;;;;;;4.13;3.00;;;;;;;18.64;100.00;96298.22;5094159;28;20031;-66
2023/08/16 00:54:28;;;;;;;3.25;2.92;;;;;;;18.63;100.00;96302.72;5092809;28;20115;-66
2023/08/16 00:56:54;;;;;;;4.32;3.22;;;;;;;18.58;100.00;96311.25;5104001;28;20020;-66
2023/08/16 00:59:21;;;;;;;7.75;3.00;;;;;;;18.57;100.00;96314.13;5094412;28;20027;-66
2023/08/16 01:01:46;;;;;;;4.53;2.80;;;;;;;18.54;100.00;96301.94;5092674;28;20023;-66
2023/08/16 01:04:14;;;;;;;3.70;3.05;;;;;;;18.50;100.00;96298.00;5094133;28;20020;-66
2023/08/16 01:06:39;;;;;;;3.25;2.95;;;;;;;18.50;100.00;96302.47;5107148;28;20049;-67
2023/08/16 01:09:05;;;;;;;9.05;3.28;;;;;;;18.49;100.00;96301.66;5094385;28;20545;-66
2023/08/16 01:11:49;;;;;;;8.48;5.93;;;;;;;18.48;100.00;96297.34;5100298;28;20593;-67
2023/08/16 01:14:29;;;;;;;6.03;3.97;;;;;;;18.46;100.00;96302.03;5102072;28;20021;-66
2023/08/16 01:16:56;;;;;;;3.22;3.00;;;;;;;18.36;100.00;96296.06;5101256;28;20103;-67
2023/08/16 01:19:28;;;;;;;4.38;3.83;;;;;;;18.27;100.00;96298.78;5112509;28;20046;-66
2023/08/16 01:22:20;;;;;;;3.17;2.97;;;;;;;18.30;100.00;96300.25;5093937;28;20028;-66
2023/08/16 01:25:06;;;;;;;3.65;3.22;;;;;;;18.27;100.00;96298.78;5093512;28;20097;-66
2023/08/16 01:27:32;;;;;;;3.40;3.08;;;;;;;18.23;100.00;96296.66;5123352;28;20079;-66
2023/08/16 01:29:58;;;;;;;2.90;2.70;;;;;;;18.14;100.00;96299.38;5093369;28;20052;-66
2023/08/16 01:32:24;;;;;;;4.55;3.22;;;;;;;18.04;100.00;96296.91;5097421;28;20112;-67
2023/08/16 01:34:49;;;;;;;6.85;3.40;;;;;;;17.97;100.00;96287.91;5116243;28;20072;-66
2023/08/16 01:37:15;;;;;;;3.17;2.97;;;;;;;17.99;100.00;96290.41;5098035;28;20051;-66
2023/08/16 01:39:41;;;;;;;3.35;3.03;;;;;;;17.98;100.00;96286.91;5093538;28;20024;-66
2023/08/16 01:42:13;;;;;;;3.65;3.33;;;;;;;17.96;100.00;96290.78;5098788;28;20034;-66
2023/08/16 01:44:38;;;;;;;3.42;3.22;;;;;;;17.94;100.00;96296.25;5094561;28;20020;-67
2023/08/16 01:47:05;;;;;;;5.15;3.53;;;;;;;17.93;100.00;96293.78;5112090;28;20532;-66
2023/08/16 01:49:31;;;;;;;3.80;3.45;;;;;;;17.96;100.00;96286.25;5115524;27;20020;-67
2023/08/16 01:51:57;;;;;;;3.95;3.22;;;;;;;17.97;100.00;96279.13;5104049;28;20028;-66
2023/08/16 01:54:23;;;;;;;3.30;3.10;;;;;;;17.95;100.00;96278.47;5107218;28;20035;-66
2023/08/16 01:56:48;;;;;;;3.28;3.00;;;;;;;17.93;100.00;96281.28;5101190;28;20492;-66
2023/08/16 01:59:14;;;;;;;3.75;3.10;;;;;;;17.89;100.00;96291.44;5106354;28;20160;-66
2023/08/16 02:01:39;;;;;;;4.40;3.50;;;;;;;17.89;100.00;96293.28;5102182;28;20538;-66
2023/08/16 02:04:05;;;;;;;5.00;3.38;;;;;;;17.87;100.00;96282.78;5104227;28;20114;-66
2023/08/16 02:06:30;;;;;;;4.07;3.03;;;;;;;17.84;100.00;96287.66;5101508;28;20028;-66
2023/08/16 02:08:55;;;;;;;3.22;2.78;;;;;;;17.82;100.00;96282.50;5103901;28;20081;-67
2023/08/16 02:11:21;;;;;;;3.50;3.20;;;;;;;17.81;100.00;96288.00;5102706;28;20027;-66
2023/08/16 02:13:46;;;;;;;3.35;3.08;;;;;;;17.72;100.00;96285.34;5111129;28;20030;-66
2023/08/16 02:16:12;;;;;;;3.25;3.00;;;;;;;17.72;100.00;96276.56;5107462;28;20141;-66
2023/08/16 02:18:38;;;;;;;4.43;3.20;;;;;;;17.68;100.00;96276.06;5101979;28;20012;-66
2023/08/16 02:21:03;;;;;;;3.72;2.83;;;;;;;17.69;100.00;96268.91;5102379;28;20055;-66
2023/08/16 02:23:29;;;;;;;4.18;2.88;;;;;;;17.64;100.00;96282.75;5097218;28;20050;-67
2023/08/16 02:25:55;;;;;;;3.38;3.08;;;;;;;17.64;100.00;96282.75;5103107;28;20396;-66
2023/08/16 02:28:20;;;;;;;3.10;2.80;;;;;;;17.56;100.00;96296.91;5100425;28;20051;-67
2023/08/16 02:30:46;;;;;;;3.67;3.17;;;;;;;17.51;100.00;96290.44;5102200;28;20043;-67
2023/08/16 02:33:12;;;;;;;3.67;2.88;;;;;;;17.46;100.00;96289.13;5098198;28;20537;-67
2023/08/16 02:35:38;;;;;;;3.10;2.80;;;;;;;17.44;100.00;96280.47;5111948;28;20031;-68
2023/08/16 02:38:03;;;;;;;3.63;3.33;;;;;;;17.44;100.00;96276.97;5107683;28;20107;-67
2023/08/16 02:40:28;;;;;;;5.55;3.15;;;;;;;17.44;100.00;96283.13;5101847;28;20024;-67
2023/08/16 02:42:54;;;;;;;3.30;3.00;;;;;;;17.44;100.00;96285.78;5102175;28;20023;-67
2023/08/16 02:45:19;;;;;;;6.93;3.20;;;;;;;17.42;100.00;96284.28;5111457;28;20124;-67
2023/08/16 02:47:46;;;;;;;3.55;3.08;;;;;;;17.41;100.00;96283.47;5109370;28;20030;-67
2023/08/16 02:50:11;;;;;;;3.40;3.10;;;;;;;17.38;100.00;96294.47;5109358;27;20455;-67
2023/08/16 02:52:37;;;;;;;3.38;3.17;;;;;;;17.35;100.00;96285.97;5096067;28;20047;-67
2023/08/16 02:55:02;;;;;;;5.15;3.17;;;;;;;17.29;100.00;96293.66;5099452;28;20111;-67
2023/08/16 02:57:28;;;;;;;3.75;3.00;;;;;;;17.26;100.00;96301.97;5115834;28;20126;-67
2023/08/16 02:59:53;;;;;;;3.63;3.33;;;;;;;17.31;100.00;96296.13;5105046;28;20031;-66
2023/08/16 03:02:19;;;;;;;4.13;3.00;;;;;;;17.35;100.00;96294.78;5096428;28;20476;-67
2023/08/16 03:04:44;;;;;;;4.72;3.15;;;;;;;17.31;100.00;96299.63;5101506;28;20357;-67
2023/08/16 03:07:10;;;;;;;3.42;3.15;;;;;;;17.27;100.00;96298.31;5109264;28;20020;-67
2023/08/16 03:09:37;;;;;;;3.10;2.90;;;;;;;17.27;100.00;96287.66;5099541;28;20050;-67
2023/08/16 03:12:03;;;;;;;3.83;3.50;;;;;;;17.20;100.00;96291.19;5108921;28;20515;-67
2023/08/16 03:14:29;;;;;;;3.60;3.22;;;;;;;17.21;100.00;96287.50;5102930;28;20054;-67
2023/08/16 03:16:56;;;;;;;3.03;2.85;;;;;;;17.21;100.00;96287.50;5103733;28;20492;-67
2023/08/16 03:19:21;;;;;;;4.50;3.63;;;;;;;17.18;100.00;96286.84;5108166;28;20456;-67
2023/08/16 03:21:47;;;;;;;3.72;3.35;;;;;;;17.17;100.00;96287.84;5095937;28;20063;-67
2023/08/16 03:24:12;;;;;;;4.22;3.35;;;;;;;17.12;100.00;96289.34;5096645;28;20020;-67
2023/08/16 03:26:37;;;;;;;4.43;3.60;;;;;;;17.09;100.00;96293.16;5113734;27;20457;-67
2023/08/16 03:29:04;;;;;;;3.80;3.30;;;;;;;17.06;100.00;96298.00;5118969;27;20636;-67
2023/08/16 03:31:29;;;;;;;4.78;3.60;;;;;;;17.03;100.00;96286.72;5095455;28;20095;-67
2023/08/16 03:33:55;;;;;;;4.80;3.55;;;;;;;17.03;100.00;96286.72;5120588;27;20070;-67
2023/08/16 03:36:20;;;;;;;3.67;3.38;;;;;;;17.08;100.00;96278.22;5095633;28;20321;-67
2023/08/16 03:38:46;;;;;;;4.00;3.70;;;;;;;17.04;100.00;96283.06;5102675;28;20023;-67
2023/08/16 03:41:11;;;;;;;6.50;3.90;;;;;;;17.02;100.00;96278.88;5095504;28;20510;-67
2023/08/16 03:43:37;;;;;;;3.88;3.30;;;;;;;16.99;100.00;96284.56;5095376;28;20020;-67
2023/08/16 03:46:05;;;;;;;3.80;3.50;;;;;;;16.99;100.00;96284.56;5100736;28;20024;-67
2023/08/16 03:48:31;;;;;;;3.90;3.10;;;;;;;16.93;100.00;96291.31;5101620;28;20070;-66
2023/08/16 03:50:56;;;;;;;3.75;3.40;;;;;;;16.90;100.00;96291.66;5118195;27;20019;-66
2023/08/16 03:53:22;;;;;;;4.82;3.80;;;;;;;16.85;100.00;96284.19;5100615;28;20020;-67
2023/08/16 03:55:47;;;;;;;3.75;3.55;;;;;;;16.81;100.00;96287.38;5100552;28;20116;-67
2023/08/16 03:58:13;;;;;;;5.25;3.53;;;;;;;16.78;100.00;96287.66;5083821;28;20033;-66
2023/08/16 04:00:40;;;;;;;4.32;4.03;;;;;;;16.72;100.00;96287.34;5094964;28;20799;-66
2023/08/16 04:03:06;;;;;;;3.83;3.53;;;;;;;16.70;100.00;96292.00;5108540;28;20047;-67
2023/08/16 04:05:32;;;;;;;3.63;3.33;;;;;;;16.66;100.00;96288.00;5094994;28;20027;-69
2023/08/16 04:07:58;;;;;;;3.67;3.40;;;;;;;16.65;100.00;96288.16;5097370;28;20024;-67
2023/08/16 04:10:23;;;;;;;10.65;3.42;;;;;;;16.60;100.00;96294.81;5095048;28;20027;-66
2023/08/16 04:12:49;;;;;;;3.90;3.55;;;;;;;16.58;100.00;96293.34;5095553;28;20098;-66
2023/08/16 04:15:14;;;;;;;3.40;3.20;;;;;;;16.58;100.00;96296.00;5094371;28;20027;-67
2023/08/16 04:17:40;;;;;;;3.58;3.28;;;;;;;16.57;100.00;96291.66;5096225;28;20058;-67
2023/08/16 04:20:07;;;;;;;3.92;3.63;;;;;;;16.56;100.00;96290.84;5097082;28;20812;-67
2023/08/16 04:22:33;;;;;;;4.15;3.67;;;;;;;16.64;100.00;96297.97;5107297;28;20031;-66
2023/08/16 04:24:59;;;;;;;5.03;3.45;;;;;;;16.66;100.00;96288.00;5101307;28;20365;-67
2023/08/16 04:27:24;;;;;;;4.53;3.30;;;;;;;16.67;100.00;96286.16;5101760;27;20019;-67
2023/08/16 04:29:50;;;;;;;3.53;3.33;;;;;;;16.66;100.00;96288.00;5094292;28;20075;-67
2023/08/16 04:32:15;;;;;;;4.10;3.70;;;;;;;16.64;100.00;96291.81;5096013;27;20081;-67
2023/08/16 04:34:41;;;;;;;7.13;3.60;;;;;;;16.61;100.00;96288.50;5094603;28;20020;-67
2023/08/16 04:37:06;;;;;;;5.10;3.63;;;;;;;16.61;100.00;96293.00;5098448;28;20039;-67
2023/08/16 04:39:31;;;;;;;6.35;4.68;;;;;;;16.61;100.00;96288.50;5113831;28;20087;-67
2023/08/16 04:41:57;;;;;;;16.52;14.02;;;;;;;16.58;100.00;96286.19;5114705;28;20607;-67
2023/08/16 04:44:22;;;;;;;7.65;4.60;;;;;;;16.55;100.00;96281.19;5094466;28;20567;-67
2023/08/16 04:46:48;;;;;;;9.30;4.40;;;;;;;16.52;100.00;96284.19;5094267;28;20435;-67
2023/08/16 04:49:13;;;;;;;5.90;4.15;;;;;;;16.53;100.00;96279.69;5112410;27;20057;-67
2023/08/16 04:51:39;;;;;;;7.38;3.65;;;;;;;16.50;100.00;96278.22;5096512;28;20031;-67
2023/08/16 04:54:04;;;;;;;4.35;3.95;;;;;;;16.50;100.00;96280.03;5100072;28;20023;-67
2023/08/16 04:56:30;;;;;;;6.93;4.25;;;;;;;16.51;100.00;96273.72;5101583;28;20055;-67
2023/08/16 04:58:55;;;;;;;6.10;3.88;;;;;;;16.49;100.00;96267.72;5094031;28;20024;-67
2023/08/16 05:01:20;;;;;;;4.93;3.80;;;;;;;16.48;100.00;96272.22;5094431;28;20065;-67
2023/08/16 05:03:50;;;;;;;4.18;3.88;;;;;;;16.46;100.00;96274.19;5093924;28;20030;-67
2023/08/16 05:06:16;;;;;;;4.53;4.10;;;;;;;16.49;100.00;96271.22;5110297;28;20035;-67
2023/08/16 05:08:41;;;;;;;7.85;3.90;;;;;;;16.50;100.00;96270.25;5113489;28;20047;-66
2023/08/16 05:11:07;;;;;;;5.10;3.72;;;;;;;16.53;100.00;96269.91;5100483;28;20434;-67
2023/08/16 05:13:32;;;;;;;6.80;6.20;;;;;;;16.56;100.00;96268.72;5094446;28;20506;-67
2023/08/16 05:15:57;;;;;;;15.98;11.05;;;;;;;16.59;100.00;96269.22;5093771;28;20396;-67
2023/08/16 05:18:23;;;;;;;7.68;6.90;;;;;;;16.58;100.00;96258.78;5100066;28;20136;-66
2023/08/16 05:20:48;;;;;;;8.35;5.28;;;;;;;16.56;100.00;96256.28;5100200;28;20637;-66
2023/08/16 05:23:14;;;;;;;8.52;4.47;;;;;;;16.56;100.00;96250.13;5094511;28;20016;-67
2023/08/16 05:25:39;;;;;;;6.35;4.57;;;;;;;16.57;100.00;96239.34;5093962;28;20704;-66
2023/08/16 05:28:05;;;;;;;10.00;4.38;;;;;;;16.60;100.00;96235.53;5117267;28;20110;-67
2023/08/16 05:30:30;;;;;;;4.97;4.30;;;;;;;16.60;100.00;96238.19;5093850;28;20067;-66
2023/08/16 05:32:56;;;;;;;8.35;4.63;;;;;;;16.61;100.00;96229.22;5093870;28;20024;-67
2023/08/16 05:35:22;;;;;;;5.20;4.45;;;;;;;16.64;100.00;96234.19;5093981;28;20050;-67
2023/08/16 05:37:48;;;;;;;8.43;4.28;;;;;;;16.68;100.00;96232.00;5091835;28;20474;-66
2023/08/16 05:40:14;;;;;;;5.00;4.50;;;;;;;16.70;100.00;96235.34;5094009;28;20513;-66
2023/08/16 05:42:40;;;;;;;6.45;4.05;;;;;;;16.75;100.00;96230.34;5093546;28;20403;-66
2023/08/16 05:45:07;;;;;;;8.32;4.10;;;;;;;16.69;100.00;96229.19;5093562;28;20055;-67
2023/08/16 05:47:32;;;;;;;5.97;4.05;;;;;;;16.69;100.00;96231.00;5093935;28;20111;-67
2023/08/16 05:49:59;;;;;;;5.35;4.63;;;;;;;16.64;100.00;96220.06;5107851;28;20055;-66
2023/08/16 05:52:25;;;;;;;7.65;4.68;;;;;;;16.60;100.00;96208.94;5094197;28;20016;-67
2023/08/16 05:54:51;;;;;;;5.55;4.40;;;;;;;16.62;100.00;96206.94;5093715;28;20035;-67
2023/08/16 05:57:16;;;;;;;4.65;4.10;;;;;;;16.65;100.00;96205.75;5093755;28;20032;-66
2023/08/16 05:59:42;;;;;;;10.82;4.70;;;;;;;16.71;100.00;96197.13;5093412;28;20031;-67
2023/08/16 06:02:07;;;;;;;7.07;4.28;;;;;;;16.76;100.00;96189.47;5092977;28;20118;-67
2023/08/16 06:04:34;;;;;;;4.15;3.85;;;;;;;16.82;100.00;96185.31;5108211;28;20031;-67
2023/08/16 06:07:00;;;;;;;6.10;4.43;;;;;;;16.93;100.00;96192.94;5098941;28;20452;-66
2023/08/16 06:09:25;;;;;;;7.03;4.30;;;;;;;17.10;100.00;96183.09;5101709;28;20031;-66
2023/08/16 06:11:51;;;;;;;7.35;4.10;;;;;;;17.24;100.00;96184.25;5097465;28;20062;-67
2023/08/16 06:14:16;;;;;;;4.47;4.15;;;;;;;17.37;100.00;96183.69;5101142;28;20038;-66
2023/08/16 06:16:42;;;;;;;5.57;3.85;;;;;;;17.55;100.00;96185.25;5099776;28;20032;-67
2023/08/16 06:19:08;;;;;;;4.60;3.92;;;;;;;17.72;100.00;96200.16;5104525;28;20024;-66
2023/08/16 06:21:34;;;;;;;5.57;4.10;;;;;;;17.86;100.00;96208.41;5106526;28;20036;-67
2023/08/16 06:24:00;;;;;;;9.85;3.88;;;;;;;18.04;100.00;96209.00;5093150;28;20361;-67
2023/08/16 06:26:25;;;;;;;4.18;3.70;;;;;;;18.20;100.00;96219.72;5097164;28;20092;-67
2023/08/16 06:28:51;;;;;;;4.05;3.70;;;;;;;18.37;100.00;96228.44;5107448;28;20048;-67
2023/08/16 06:31:17;;;;;;;4.72;3.85;;;;;;;18.56;100.00;96235.94;5104558;28;20032;-67
2023/08/16 06:33:43;;;;;;;4.38;3.70;;;;;;;18.71;100.00;96235.19;5120275;27;20097;-67
2023/08/16 06:36:09;;;;;;;6.85;3.70;;;;;;;18.81;100.00;96233.06;5100384;28;20080;-67
2023/08/16 06:38:34;;;;;;;5.93;3.80;;;;;;;18.92;100.00;96237.13;5096410;28;20043;-67
2023/08/16 06:41:00;;;;;;;5.72;4.10;;;;;;;19.05;100.00;96239.22;5111417;28;20081;-67
2023/08/16 06:43:25;;;;;;;5.63;3.95;;;;;;;19.25;100.00;96236.84;5115606;28;20095;-66
2023/08/16 06:45:51;;;;;;;7.00;3.88;;;;;;;19.50;100.00;96230.41;5100996;28;20019;-67
2023/08/16 06:48:16;;;;;;;11.77;4.07;;;;;;;19.71;100.00;96241.16;5096284;28;20020;-67
2023/08/16 06:50:42;;;;;;;8.52;4.07;;;;;;;19.84;100.00;96266.38;5107572;27;20527;-67
2023/08/16 06:53:07;;;;;;;8.77;4.57;;;;;;;19.94;100.00;96271.47;5105749;28;20495;-66
2023/08/16 06:55:35;;;;;;;7.03;4.50;;;;;;;20.13;100.00;96270.03;5097191;28;20019;-67
2023/08/16 06:58:03;;;;;;;7.80;4.63;;;;;;;20.30;100.00;96273.31;5109638;28;20039;-67
2023/08/16 07:00:28;;;;;;;5.03;4.15;;;;;;;20.49;100.00;96271.03;5096394;28;20057;-67
2023/08/16 07:02:54;;;;;;;3.83;3.40;;;;;;;20.73;100.00;96253.78;5099771;28;20020;-67
2023/08/16 07:05:19;;;;;;;7.80;3.80;;;;;;;21.00;100.00;96256.69;5096143;28;20020;-67
2023/08/16 07:07:45;;;;;;;10.05;4.32;;;;;;;21.14;100.00;96260.28;5096191;28;20024;-66
2023/08/16 07:10:10;;;;;;;7.13;4.07;;;;;;;21.40;100.00;96267.69;5111084;28;20043;-66
2023/08/16 07:12:36;;;;;;;7.60;3.75;;;;;;;21.72;100.00;96261.94;5112707;28;20039;-67
2023/08/16 07:15:01;;;;;;;7.00;3.25;;;;;;;22.12;100.00;96242.47;5108045;28;20023;-67
2023/08/16 07:17:27;;;;;;;5.53;3.17;;;;;;;22.47;100.00;96231.69;5101089;28;20035;-67
2023/08/16 07:19:52;;;;;;;3.25;2.90;;;;;;;22.70;100.00;96223.22;5108293;28;20057;-67
2023/08/16 07:22:20;;;;;;;5.55;3.60;;;;;;;23.06;100.00;96194.28;5095618;28;20027;-67
2023/08/16 07:24:45;;;;;;;5.40;3.05;;;;;;;23.46;100.00;96182.69;5101405;28;20161;-67
2023/08/16 07:27:11;;;;;;;4.57;2.78;;;;;;;23.84;100.00;96181.88;5127163;27;20046;-67
2023/08/16 07:29:36;;;;;;;3.90;3.10;;;;;;;24.11;100.00;96176.41;5101243;28;20047;-67
2023/08/16 07:32:01;;;;;;;3.88;3.33;;;;;;;24.41;100.00;96167.72;5114169;28;20016;-67
2023/08/16 07:34:27;;;;;;;3.47;3.17;;;;;;;24.45;100.00;96166.22;5096400;28;20551;-67
2023/08/16 07:36:52;;;;;;;2.92;2.72;;;;;;;24.60;100.00;96168.59;5095498;28;20027;-67
2023/08/16 07:39:18;;;;;;;2.83;2.70;;;;;;;24.92;100.00;96162.34;5100309;28;20038;-67
2023/08/16 07:41:43;;;;;;;4.18;2.92;;;;;;;25.36;100.00;96156.94;5115358;27;20110;-67
2023/08/16 07:44:09;;;;;;;2.90;2.60;;;;;;;25.57;100.00;96144.88;5096811;28;20016;-67
2023/08/16 07:46:34;;;;;;;4.38;2.97;;;;;;;25.68;100.00;96147.88;5099446;28;20047;-67
2023/08/16 07:48:59;;;;;;;3.47;2.70;;;;;;;26.00;100.00;96144.97;5112221;27;20028;-67
2023/08/16 07:51:25;;;;;;;4.28;2.90;;;;;;;26.17;100.00;96142.47;5103060;28;20484;-67
2023/08/16 07:53:50;;;;;;;4.68;3.10;;;;;;;26.19;100.00;96151.13;5077777;28;20016;-67
2023/08/16 07:56:16;;;;;;;5.57;3.08;;;;;;;26.47;100.00;96152.41;5095471;28;20054;-67
2023/08/16 07:58:41;;;;;;;5.90;3.60;;;;;;;26.82;100.00;96154.28;5108394;28;20454;-67
2023/08/16 08:01:06;;;;;;;15.25;4.30;;;;;;;26.95;100.00;96152.47;5099008;28;20392;-67
2023/08/16 08:03:32;;;;;;;6.78;3.17;;;;;;;27.20;100.00;96151.38;5094160;28;20377;-67
2023/08/16 08:06:02;;;;;;;5.55;3.35;;;;;;;27.36;100.00;96153.38;5095330;28;20042;-67
2023/08/16 08:08:27;;;;;;;4.85;3.10;;;;;;;27.57;100.00;96154.63;5104518;28;20024;-68
2023/08/16 08:10:52;;;;;;;7.55;2.92;;;;;;;27.78;100.00;96151.53;5095266;28;20562;-67
2023/08/16 08:13:18;;;;;;;5.63;2.75;;;;;;;27.76;100.00;96153.66;5095011;28;20136;-67
2023/08/16 08:15:43;;;;;;;4.88;2.80;;;;;;;27.85;100.00;96149.50;5094829;28;20447;-67
2023/08/16 08:18:09;;;;;;;4.70;2.80;;;;;;;28.13;100.00;96150.53;5099291;28;20043;-67
2023/08/16 08:20:37;;;;;;;6.78;3.28;;;;;;;28.11;100.00;96156.22;5103300;28;20069;-67
2023/08/16 08:23:02;;;;;;;5.25;2.97;;;;;;;28.15;100.00;96151.97;5094676;28;20075;-67
2023/08/16 08:25:29;;;;;;;6.63;3.20;;;;;;;28.18;100.00;96156.06;5095137;28;20028;-67
2023/08/16 08:27:55;;;;;;;9.73;2.67;;;;;;;28.27;100.00;96149.22;5116682;27;20020;-67
2023/08/16 08:30:20;;;;;;;3.45;2.60;;;;;;;28.35;100.00;96152.56;5094293;28;20052;-67
2023/08/16 08:32:46;;;;;;;3.65;2.75;;;;;;;28.27;100.00;96143.78;5117800;27;20055;-67
2023/08/16 08:35:11;;;;;;;3.28;2.83;;;;;;;28.47;100.00;96156.03;5110109;27;20035;-67
2023/08/16 08:37:37;;;;;;;3.85;2.38;;;;;;;28.58;100.00;96152.41;5094553;28;20097;-67
2023/08/16 08:40:04;;;;;;;5.82;2.88;;;;;;;28.53;100.00;96154.25;5094718;28;20141;-67
2023/08/16 08:42:31;;;;;;;3.20;2.78;;;;;;;28.39;100.00;96145.59;5098368;28;20008;-67
2023/08/16 08:44:58;;;;;;;3.15;2.67;;;;;;;28.98;100.00;96149.81;5097438;28;20024;-67
2023/08/16 08:47:24;;;;;;;3.10;2.70;;;;;;;29.20;100.00;96139.03;5093479;28;20370;-67
2023/08/16 08:49:51;;;;;;;3.58;3.10;;;;;;;29.59;100.00;96143.59;5104525;27;20034;-67
2023/08/16 08:52:17;;;;;;;4.80;2.60;;;;;;;29.82;100.00;96145.22;5096666;28;20023;-67
2023/08/16 08:54:44;;;;;;;3.72;2.60;;;;;;;29.91;100.00;96133.91;5102862;28;20071;-67
2023/08/16 08:57:10;;;;;;;4.13;2.85;;;;;;;29.54;100.00;96141.63;5094337;28;20028;-67
2023/08/16 08:59:38;;;;;;;8.70;2.65;;;;;;;29.24;100.00;96142.03;5094611;28;20027;-67
2023/08/16 09:02:05;;;;;;;8.23;2.40;;;;;;;29.00;100.00;96142.25;5094519;28;20020;-67
2023/08/16 09:04:33;;;;;;;4.53;2.40;;;;;;;29.15;100.00;96139.75;5106984;28;20031;-67
2023/08/16 09:07:03;;;;;;;3.05;2.75;;;;;;;28.83;100.00;96139.56;5100333;28;20072;-67
2023/08/16 09:09:29;;;;;;;2.92;2.25;;;;;;;28.34;100.00;96154.47;5101091;28;20016;-67
2023/08/16 09:11:55;;;;;;;2.35;2.10;;;;;;;28.14;100.00;96150.31;5093898;28;20050;-67
2023/08/16 09:14:21;;;;;;;4.03;2.53;;;;;;;27.83;100.00;96155.13;5097432;28;20024;-67
2023/08/16 09:16:46;;;;;;;4.47;2.47;;;;;;;27.59;100.00;96160.63;5093879;28;20078;-67
2023/08/16 09:19:15;;;;;;;3.35;2.58;;;;;;;27.58;100.00;96164.38;5106653;28;20042;-67
2023/08/16 09:21:42;;;;;;;2.70;2.50;;;;;;;27.30;100.00;96167.81;5114737;28;20034;-67
2023/08/16 09:24:08;;;;;;;3.60;2.90;;;;;;;27.16;100.00;96175.34;5099651;28;20020;-67
2023/08/16 09:26:36;;;;;;;6.32;2.85;;;;;;;26.76;100.00;96176.84;5108221;28;20030;-68
2023/08/16 09:29:03;;;;;;;4.78;2.80;;;;;;;26.57;100.00;96174.22;5100913;28;20051;-67
2023/08/16 09:31:32;;;;;;;3.05;2.50;;;;;;;26.39;100.00;96185.09;5094710;28;20016;-67
2023/08/16 09:34:01;;;;;;;3.45;3.03;;;;;;;26.31;100.00;96186.28;5093683;28;20024;-66
2023/08/16 09:36:30;;;;;;;6.93;3.30;;;;;;;26.41;100.00;96188.38;5095244;28;20016;-67
2023/08/16 09:39:11;;;;;;;3.92;2.83;;;;;;;26.45;100.00;96187.72;5096165;28;20094;-74
2023/08/16 09:41:50;;;;;;;4.25;2.85;;;;;;;26.53;100.00;96178.47;5103874;28;20020;-69
2023/08/16 09:44:17;;;;;;;3.35;2.55;;;;;;;26.88;100.00;96174.19;5094611;28;20012;-69
2023/08/16 09:46:42;;;;;;;6.80;2.97;;;;;;;27.19;100.00;96174.91;5093931;28;20024;-69
2023/08/16 09:49:09;;;;;;;3.95;3.00;;;;;;;27.65;100.00;96168.84;5099924;28;20030;-69
2023/08/16 09:51:37;;;;;;;4.80;2.92;;;;;;;28.26;100.00;96169.22;5112957;28;20391;-69
2023/08/16 09:54:14;;;;;;;2.92;2.65;;;;;;;28.63;100.00;96161.69;5107184;28;20020;-68
2023/08/16 09:56:41;;;;;;;2.95;2.75;;;;;;;28.95;100.00;96167.38;5097248;28;20115;-69
2023/08/16 09:59:12;;;;;;;3.65;2.92;;;;;;;28.86;100.00;96156.16;5096189;28;20023;-69
2023/08/16 10:01:38;;;;;;;5.90;2.78;;;;;;;29.17;100.00;96156.59;5111475;28;20034;-69
2023/08/16 10:04:04;;;;;;;2.65;2.45;;;;;;;29.40;100.00;96156.59;5093598;28;20024;-69
2023/08/16 10:06:33;;;;;;;2.95;2.38;;;;;;;29.81;100.00;96145.47;5096938;28;20023;-69
2023/08/16 10:09:02;;;;;;;2.80;2.58;;;;;;;29.70;100.00;96145.34;5108816;28;20492;-69
2023/08/16 10:11:28;;;;;;;4.38;2.63;;;;;;;29.73;100.00;96139.44;5101999;28;20097;-68
2023/08/16 10:13:54;;;;;;;2.78;2.58;;;;;;;30.24;100.00;96135.63;5097436;28;20063;-68
2023/08/16 10:16:22;;;;;;;3.47;2.50;;;;;;;30.80;100.00;96137.19;5100210;28;20031;-68
2023/08/16 10:18:50;;;;;;;4.05;2.40;;;;;;;30.94;100.00;96131.31;5107338;28;20020;-68
2023/08/16 10:21:17;;;;;;;2.92;2.72;;;;;;;30.86;100.00;96127.19;5101172;28;20133;-68
2023/08/16 10:23:44;;;;;;;2.63;2.38;;;;;;;31.07;100.00;96121.88;5115861;28;20019;-68
2023/08/16 10:26:19;;;;;;;2.95;2.40;;;;;;;30.99;100.00;96120.47;5113379;27;20023;-68
2023/08/16 10:28:50;;;;;;;2.60;2.10;;;;;;;30.41;100.00;96123.84;5110875;27;20578;-69
2023/08/16 10:31:23;;;;;;;3.35;2.50;;;;;;;30.81;100.00;96113.56;5096718;28;20144;-68
2023/08/16 10:33:52;;;;;;;3.35;2.53;;;;;;;31.12;100.00;96109.13;5122954;27;20110;-68
2023/08/16 10:36:18;;;;;;;3.08;2.47;;;;;;;31.21;100.00;96104.03;5096966;28;20503;-68
2023/08/16 10:38:44;;;;;;;5.72;2.50;;;;;;;31.11;100.00;96110.22;5098964;28;20031;-68
2023/08/16 10:41:13;;;;;;;3.05;2.53;;;;;;;31.41;100.00;96099.78;5096712;28;20016;-68
2023/08/16 10:43:46;;;;;;;2.83;2.28;;;;;;;31.25;100.00;96091.56;5096996;28;20073;-68
2023/08/16 10:46:12;;;;;;;3.92;2.58;;;;;;;31.32;100.00;96096.75;5108221;28;20073;-67
2023/08/16 10:48:38;;;;;;;2.70;2.50;;;;;;;31.08;100.00;96090.88;5100268;28;20027;-68
2023/08/16 10:51:06;;;;;;;3.83;2.47;;;;;;;30.28;100.00;96090.59;5103158;27;20066;-68
2023/08/16 10:53:34;;;;;;;3.33;2.60;;;;;;;29.79;100.00;96087.94;5101639;28;20020;-68
2023/08/16 10:56:08;;;;;;;4.68;2.70;;;;;;;29.84;100.00;96090.69;5101579;28;20518;-68
2023/08/16 10:58:50;;;;;;;;;;;;;;;29.98;100.00;96083.78;5105257;28;20024;-68
2023/08/16 11:01:16;;;;;;;4.22;2.40;;;;;;;29.84;100.00;96086.09;5112322;28;19934;-68
2023/08/16 11:03:43;;;;;;;2.45;2.25;;;;;;;29.68;100.00;96085.09;5103870;28;20016;-68
2023/08/16 11:06:14;;;;;;;6.63;2.90;;;;;;;30.12;100.00;96083.38;5094775;28;20051;-68
2023/08/16 11:08:43;;;;;;;9.82;2.75;;;;;;;30.90;100.00;96073.94;5096588;28;20477;-68
2023/08/16 11:11:10;;;;;;;2.92;2.42;;;;;;;31.07;100.00;96071.06;5103813;28;20019;-68
2023/08/16 11:13:40;;;;;;;2.70;2.50;;;;;;;31.11;100.00;96076.75;5096201;28;20024;-68
2023/08/16 11:16:09;;;;;;;2.88;2.40;;;;;;;31.61;100.00;96073.72;5109498;28;20024;-68
2023/08/16 11:18:35;;;;;;;4.13;2.65;;;;;;;31.98;100.00;96076.28;5099291;28;20082;-68
2023/08/16 11:21:01;;;;;;;2.58;2.45;;;;;;;31.69;100.00;96068.56;5098554;28;20024;-68